Time;durP1;ratioP1;P1;durP2;ratioP2;P2;SDS_P1;SDS_P2;PMS_P1;PMS_P2;Temp;Humidity;BMP_temperature;BMP_pressure;BME280_temperature;BME280_humidity;BME280_pressure;Samples;Min_cycle;Max_cycle;Signal;HPM_P1;HPM_P2
2022/08/04 00:00:22;;;;;;;23.40;16.15;;;;;;;;;;5030710;28;20029;-64
2022/08/04 00:02:52;;;;;;;21.20;15.85;;;;;;;;;;5030131;28;20026;-62
2022/08/04 00:05:36;;;;;;;21.75;15.50;;;;;;;;;;5012190;28;20030;-64
2022/08/04 00:08:21;;;;;;;22.73;15.43;;;;;;;;;;5011826;28;20534;-63
2022/08/04 00:10:53;;;;;;;19.38;15.40;;;;;;;;;;5013871;28;20029;-64
2022/08/04 00:13:22;;;;;;;22.83;15.95;;;;;;;;;;5012803;28;20113;-65
2022/08/04 00:15:51;;;;;;;19.92;15.38;;;;;;;;;;5014088;28;20034;-65
2022/08/04 00:18:18;;;;;;;21.27;16.15;;;;;;;;;;5013188;28;20022;-62
2022/08/04 00:20:45;;;;;;;21.20;15.13;;;;;;;;;;5012651;28;20134;-64
2022/08/04 00:23:11;;;;;;;22.67;16.75;;;;;;;;;;5014374;28;20048;-63
2022/08/04 00:25:41;;;;;;;23.00;16.00;;;;;;;;;;5014415;28;20122;-65
2022/08/04 00:28:07;;;;;;;22.92;15.50;;;;;;;;;;5013519;28;20028;-65
2022/08/04 00:30:33;;;;;;;22.33;15.55;;;;;;;;;;5013956;28;20084;-66
2022/08/04 00:32:59;;;;;;;23.33;17.02;;;;;;;;;;5012952;28;20026;-65
2022/08/04 00:35:27;;;;;;;23.73;15.77;;;;;;;;;;5013894;28;20030;-64
2022/08/04 00:37:54;;;;;;;27.88;16.33;;;;;;;;;;5013308;28;20029;-64
2022/08/04 00:40:28;;;;;;;24.52;15.65;;;;;;;;;;5013963;28;20429;-64
2022/08/04 00:43:02;;;;;;;20.23;15.85;;;;;;;;;;5013784;28;20026;-65
2022/08/04 00:45:46;;;;;;;21.00;15.60;;;;;;;;;;5013670;28;20030;-64
2022/08/04 00:48:12;;;;;;;18.27;15.85;;;;;;;;;;5012944;28;20032;-64
2022/08/04 00:50:41;;;;;;;22.65;15.90;;;;;;;;;;5013393;28;20021;-65
2022/08/04 00:53:11;;;;;;;17.98;14.68;;;;;;;;;;5013402;28;20026;-64
2022/08/04 00:55:56;;;;;;;21.85;15.63;;;;;;;;;;5013591;28;20029;-64
2022/08/04 00:58:41;;;;;;;20.80;15.48;;;;;;;;;;5011690;28;20022;-65
2022/08/04 01:01:13;;;;;;;19.60;16.00;;;;;;;;;;5013291;28;20030;-65
2022/08/04 01:03:50;;;;;;;20.30;15.43;;;;;;;;;;5013521;28;20081;-64
2022/08/04 01:06:35;;;;;;;22.00;16.05;;;;;;;;;;5012549;28;20057;-64
2022/08/04 01:09:07;;;;;;;20.75;15.40;;;;;;;;;;5012453;28;20033;-64
2022/08/04 01:11:49;;;;;;;19.77;15.07;;;;;;;;;;5013206;28;20076;-64
2022/08/04 01:14:17;;;;;;;21.05;15.77;;;;;;;;;;5013151;28;20501;-65
2022/08/04 01:16:49;;;;;;;21.75;15.50;;;;;;;;;;5013204;28;20073;-64
2022/08/04 01:19:35;;;;;;;21.45;14.85;;;;;;;;;;5012636;28;20088;-64
2022/08/04 01:22:10;;;;;;;21.02;15.35;;;;;;;;;;5013124;28;20090;-64
2022/08/04 01:24:39;;;;;;;21.73;15.65;;;;;;;;;;5011971;28;20058;-65
2022/08/04 01:27:19;;;;;;;22.45;16.08;;;;;;;;;;5012997;28;20430;-65
2022/08/04 01:29:56;;;;;;;23.65;16.20;;;;;;;;;;5013218;28;20443;-65
2022/08/04 01:32:36;;;;;;;23.65;16.02;;;;;;;;;;5013273;28;20022;-65
2022/08/04 01:35:06;;;;;;;21.55;15.40;;;;;;;;;;5012899;28;20037;-63
2022/08/04 01:37:44;;;;;;;21.25;15.60;;;;;;;;;;5012144;28;20021;-65
2022/08/04 01:40:12;;;;;;;21.45;15.45;;;;;;;;;;5011673;28;20088;-65
2022/08/04 01:42:38;;;;;;;;;;;;;;;;;;5013227;28;20054;-65
2022/08/04 01:45:08;;;;;;;18.67;15.35;;;;;;;;;;5012838;28;19909;-64
2022/08/04 01:47:36;;;;;;;20.08;15.63;;;;;;;;;;5011997;28;20528;-65
2022/08/04 01:50:05;;;;;;;20.90;15.70;;;;;;;;;;5012632;28;20064;-64
2022/08/04 01:52:31;;;;;;;22.98;16.45;;;;;;;;;;5012751;28;20025;-66
2022/08/04 01:54:58;;;;;;;19.63;15.10;;;;;;;;;;5012443;28;20068;-64
2022/08/04 01:57:25;;;;;;;20.83;15.38;;;;;;;;;;5016979;28;20045;-64
2022/08/04 01:59:51;;;;;;;21.20;15.98;;;;;;;;;;5018263;28;20080;-65
2022/08/04 02:02:17;;;;;;;25.02;16.25;;;;;;;;;;5014510;28;20096;-63
2022/08/04 02:04:43;;;;;;;20.77;15.90;;;;;;;;;;5012698;28;20095;-65
2022/08/04 02:07:28;;;;;;;20.70;15.45;;;;;;;;;;5012247;28;20541;-64
2022/08/04 02:10:05;;;;;;;23.80;16.05;;;;;;;;;;5012517;28;20041;-64
2022/08/04 02:12:31;;;;;;;22.15;15.98;;;;;;;;;;5012322;28;20052;-65
2022/08/04 02:15:02;;;;;;;21.98;15.05;;;;;;;;;;5012535;28;20605;-63
2022/08/04 02:17:33;;;;;;;22.15;16.00;;;;;;;;;;5010324;28;20088;-63
2022/08/04 02:20:15;;;;;;;22.95;15.52;;;;;;;;;;5012143;28;20026;-64
2022/08/04 02:23:01;;;;;;;20.40;15.60;;;;;;;;;;5012402;28;20511;-64
2022/08/04 02:25:28;;;;;;;28.13;15.90;;;;;;;;;;5012232;28;20056;-64
2022/08/04 02:27:58;;;;;;;22.75;15.82;;;;;;;;;;5011635;28;20034;-65
2022/08/04 02:30:28;;;;;;;22.30;15.82;;;;;;;;;;5012249;28;20026;-64
2022/08/04 02:32:57;;;;;;;20.80;15.25;;;;;;;;;;5012456;28;20033;-65
2022/08/04 02:35:26;;;;;;;21.92;15.50;;;;;;;;;;5012611;28;20390;-64
2022/08/04 02:38:25;;;;;;;21.90;15.15;;;;;;;;;;5011869;28;20069;-64
2022/08/04 02:40:51;;;;;;;;;;;;;;;;;;5011466;28;20410;-64
2022/08/04 02:43:19;;;;;;;31.75;16.60;;;;;;;;;;5012325;28;19906;-62
2022/08/04 02:45:46;;;;;;;26.13;16.55;;;;;;;;;;5011785;28;20022;-65
2022/08/04 02:48:14;;;;;;;21.90;15.45;;;;;;;;;;5010989;28;20038;-65
2022/08/04 02:50:40;;;;;;;20.27;15.23;;;;;;;;;;5011871;28;20105;-65
2022/08/04 02:53:09;;;;;;;21.98;14.95;;;;;;;;;;5011930;28;20155;-66
2022/08/04 02:55:35;;;;;;;;;;;;;;;;;;5012010;28;20034;-64
2022/08/04 02:58:02;;;;;;;26.58;15.73;;;;;;;;;;5011036;28;19905;-65
2022/08/04 03:00:28;;;;;;;21.52;15.10;;;;;;;;;;5011560;28;20018;-64
2022/08/04 03:03:06;;;;;;;21.45;15.32;;;;;;;;;;5011607;28;20040;-64
2022/08/04 03:05:32;;;;;;;20.48;15.55;;;;;;;;;;5011878;28;20030;-64
2022/08/04 03:07:58;;;;;;;21.52;16.20;;;;;;;;;;5010847;28;20638;-64
2022/08/04 03:10:24;;;;;;;21.13;15.95;;;;;;;;;;5011394;28;20061;-64
2022/08/04 03:12:53;;;;;;;22.30;16.00;;;;;;;;;;5011705;28;20109;-64
2022/08/04 03:15:35;;;;;;;20.45;15.93;;;;;;;;;;5011609;28;20040;-65
2022/08/04 03:18:19;;;;;;;21.90;16.05;;;;;;;;;;5011112;28;20465;-64
2022/08/04 03:20:57;;;;;;;19.70;16.02;;;;;;;;;;5011852;28;20474;-65
2022/08/04 03:23:29;;;;;;;22.17;16.88;;;;;;;;;;5011690;28;20049;-65
2022/08/04 03:25:58;;;;;;;25.75;16.27;;;;;;;;;;5011512;28;20032;-65
2022/08/04 03:28:43;;;;;;;20.35;17.30;;;;;;;;;;5011609;28;20034;-65
2022/08/04 03:31:15;;;;;;;21.58;16.08;;;;;;;;;;5013896;28;20108;-64
2022/08/04 03:33:41;;;;;;;20.20;16.40;;;;;;;;;;5013739;28;20025;-64
2022/08/04 03:36:16;;;;;;;22.23;16.77;;;;;;;;;;5013519;28;20090;-64
2022/08/04 03:38:51;;;;;;;21.67;17.05;;;;;;;;;;5014367;28;20022;-64
2022/08/04 03:41:23;;;;;;;24.38;17.83;;;;;;;;;;5014966;28;20459;-63
2022/08/04 03:44:08;;;;;;;25.20;17.08;;;;;;;;;;5014931;28;20402;-64
2022/08/04 03:46:40;;;;;;;26.27;18.08;;;;;;;;;;5013544;28;20029;-65
2022/08/04 03:49:16;;;;;;;22.13;17.00;;;;;;;;;;5014018;28;20022;-64
2022/08/04 03:54:50;;;;;;;22.77;16.63;;;;;;;;;;5014505;28;20153;-65
2022/08/04 03:57:25;;;;;;;23.80;16.48;;;;;;;;;;5012629;28;20026;-63
2022/08/04 04:00:00;;;;;;;24.27;16.50;;;;;;;;;;5013310;28;20032;-64
2022/08/04 04:02:26;;;;;;;27.20;17.50;;;;;;;;;;5013406;28;20039;-64
2022/08/04 04:05:11;;;;;;;25.90;18.23;;;;;;;;;;5014965;28;20034;-65
2022/08/04 04:07:43;;;;;;;22.88;17.05;;;;;;;;;;5014073;28;20433;-64
2022/08/04 04:10:30;;;;;;;24.90;16.75;;;;;;;;;;5016872;28;20029;-65
2022/08/04 04:12:56;;;;;;;25.55;20.42;;;;;;;;;;5019898;28;20085;-64
2022/08/04 04:15:42;;;;;;;24.33;19.48;;;;;;;;;;5016038;28;20068;-63
2022/08/04 04:18:14;;;;;;;22.83;17.83;;;;;;;;;;5012866;28;20061;-64
2022/08/04 04:20:46;;;;;;;30.40;18.92;;;;;;;;;;5014008;28;20108;-65
2022/08/04 04:23:15;;;;;;;25.33;18.10;;;;;;;;;;5014288;28;20057;-64
2022/08/04 04:25:47;;;;;;;25.33;17.30;;;;;;;;;;5014233;28;20127;-65
2022/08/04 04:28:33;;;;;;;21.63;16.77;;;;;;;;;;5013375;28;20422;-65
2022/08/04 04:31:09;;;;;;;28.88;22.48;;;;;;;;;;5013009;28;20394;-66
2022/08/04 04:33:35;;;;;;;27.55;20.10;;;;;;;;;;5012797;28;20026;-65
2022/08/04 04:36:01;;;;;;;30.05;23.20;;;;;;;;;;5014039;28;20355;-64
2022/08/04 04:38:39;;;;;;;21.15;17.42;;;;;;;;;;5012917;28;20025;-65
2022/08/04 04:41:16;;;;;;;24.45;17.80;;;;;;;;;;5011539;28;20033;-64
2022/08/04 04:43:44;;;;;;;23.13;17.25;;;;;;;;;;5013615;28;20029;-64
2022/08/04 04:46:16;;;;;;;25.40;17.80;;;;;;;;;;5012362;28;20037;-65
2022/08/04 04:48:46;;;;;;;33.78;18.15;;;;;;;;;;5012756;28;20036;-65
2022/08/04 04:51:17;;;;;;;28.95;17.85;;;;;;;;;;5013361;28;20120;-66
2022/08/04 04:53:56;;;;;;;25.73;17.33;;;;;;;;;;5013599;28;20065;-65
2022/08/04 04:56:22;;;;;;;30.15;16.80;;;;;;;;;;5013350;28;20057;-64
2022/08/04 04:58:50;;;;;;;33.10;17.67;;;;;;;;;;5012564;28;20089;-65
2022/08/04 05:01:29;;;;;;;26.85;18.70;;;;;;;;;;5013185;28;20057;-65
2022/08/04 05:04:01;;;;;;;34.92;20.90;;;;;;;;;;5013361;28;20087;-64
2022/08/04 05:06:47;;;;;;;32.63;19.83;;;;;;;;;;5012054;28;20479;-64
2022/08/04 05:09:28;;;;;;;31.73;18.42;;;;;;;;;;5011122;28;20058;-64
2022/08/04 05:12:14;;;;;;;32.35;18.42;;;;;;;;;;5013236;28;20501;-64
2022/08/04 05:14:45;;;;;;;34.50;19.95;;;;;;;;;;5012882;28;20026;-65
2022/08/04 05:17:14;;;;;;;35.15;19.55;;;;;;;;;;5012452;28;20466;-62
2022/08/04 05:19:59;;;;;;;28.42;18.02;;;;;;;;;;5013131;28;20029;-66
2022/08/04 05:22:28;;;;;;;31.73;19.50;;;;;;;;;;5013141;28;20045;-64
2022/08/04 05:24:57;;;;;;;32.80;20.15;;;;;;;;;;5012647;28;20104;-66
2022/08/04 05:27:40;;;;;;;40.83;28.27;;;;;;;;;;5012036;28;20026;-65
2022/08/04 05:30:07;;;;;;;32.42;20.20;;;;;;;;;;5011482;28;20033;-64
2022/08/04 05:32:40;;;;;;;27.95;20.05;;;;;;;;;;5015372;28;20025;-64
2022/08/04 05:35:10;;;;;;;27.45;18.15;;;;;;;;;;5022253;28;20522;-65
2022/08/04 05:37:38;;;;;;;26.38;17.30;;;;;;;;;;5019652;28;20037;-65
2022/08/04 05:40:05;;;;;;;25.17;18.58;;;;;;;;;;5010921;28;20022;-64
2022/08/04 05:42:33;;;;;;;26.35;18.27;;;;;;;;;;5029777;28;20112;-66
2022/08/04 05:44:59;;;;;;;26.00;17.23;;;;;;;;;;5030986;28;20026;-64
2022/08/04 05:47:26;;;;;;;24.17;18.88;;;;;;;;;;5029923;28;20033;-66
2022/08/04 05:49:52;;;;;;;34.33;18.50;;;;;;;;;;5024774;28;20123;-66
2022/08/04 05:52:19;;;;;;;25.85;18.88;;;;;;;;;;5012028;28;20049;-65
2022/08/04 05:54:45;;;;;;;22.80;17.80;;;;;;;;;;5012438;28;20371;-64
2022/08/04 05:57:12;;;;;;;25.67;17.70;;;;;;;;;;5011697;28;20026;-64
2022/08/04 05:59:39;;;;;;;23.88;18.30;;;;;;;;;;5012269;28;20080;-64
2022/08/04 06:02:07;;;;;;;25.85;18.63;;;;;;;;;;5010920;28;20506;-65
2022/08/04 06:04:40;;;;;;;29.33;19.13;;;;;;;;;;5012110;28;20104;-67
2022/08/04 06:07:07;;;;;;;24.08;19.10;;;;;;;;;;5020737;28;20026;-64
2022/08/04 06:09:33;;;;;;;23.48;17.30;;;;;;;;;;5031407;28;20390;-64
2022/08/04 06:12:10;;;;;;;21.30;17.10;;;;;;;;;;5031594;28;20164;-65
2022/08/04 06:14:41;;;;;;;21.77;17.17;;;;;;;;;;5032105;28;20125;-65
2022/08/04 06:17:08;;;;;;;26.70;18.33;;;;;;;;;;5031511;28;20091;-63
2022/08/04 06:19:35;;;;;;;24.92;18.23;;;;;;;;;;5033967;28;20192;-65
2022/08/04 06:22:03;;;;;;;26.10;18.75;;;;;;;;;;5033495;28;20045;-65
2022/08/04 06:24:30;;;;;;;21.25;18.10;;;;;;;;;;5032133;28;20021;-65
2022/08/04 06:26:56;;;;;;;23.05;18.13;;;;;;;;;;5030671;28;20494;-65
2022/08/04 06:29:33;;;;;;;21.65;17.58;;;;;;;;;;5030540;28;20017;-65
2022/08/04 06:32:01;;;;;;;20.88;16.80;;;;;;;;;;5031548;28;20385;-66
2022/08/04 06:34:28;;;;;;;19.60;17.30;;;;;;;;;;5031152;28;20035;-64
2022/08/04 06:36:55;;;;;;;21.25;17.02;;;;;;;;;;5031534;28;20025;-64
2022/08/04 06:39:22;;;;;;;23.25;16.60;;;;;;;;;;5030768;28;20018;-66
2022/08/04 06:41:50;;;;;;;21.30;16.80;;;;;;;;;;5030543;28;20033;-66
2022/08/04 06:44:16;;;;;;;23.30;17.25;;;;;;;;;;5032150;28;20017;-65
2022/08/04 06:46:43;;;;;;;21.17;17.45;;;;;;;;;;5031770;28;20030;-65
2022/08/04 06:49:10;;;;;;;21.70;17.60;;;;;;;;;;5030872;28;20021;-66
2022/08/04 06:51:36;;;;;;;28.90;19.98;;;;;;;;;;5031434;28;20030;-62
2022/08/04 06:54:02;;;;;;;24.50;17.65;;;;;;;;;;5030200;28;20456;-65
2022/08/04 06:56:29;;;;;;;20.85;17.50;;;;;;;;;;5031464;28;20057;-66
2022/08/04 06:58:56;;;;;;;23.92;17.73;;;;;;;;;;5029345;28;20133;-65
2022/08/04 07:01:22;;;;;;;24.75;18.35;;;;;;;;;;5031607;28;20025;-65
2022/08/04 07:03:48;;;;;;;20.95;17.30;;;;;;;;;;5031844;28;20049;-65
2022/08/04 07:06:15;;;;;;;20.35;17.13;;;;;;;;;;5034024;28;20026;-61
2022/08/04 07:08:42;;;;;;;21.70;18.08;;;;;;;;;;5034358;28;20021;-61
2022/08/04 07:11:09;;;;;;;25.13;18.13;;;;;;;;;;5034835;28;20393;-63
2022/08/04 07:13:35;;;;;;;23.55;17.60;;;;;;;;;;5034956;28;20026;-62
2022/08/04 07:16:01;;;;;;;21.75;17.88;;;;;;;;;;5034751;28;20025;-63
2022/08/04 07:18:27;;;;;;;21.05;17.33;;;;;;;;;;5034053;28;20018;-66
2022/08/04 07:20:54;;;;;;;21.50;17.35;;;;;;;;;;5033636;28;20049;-56
2022/08/04 07:23:24;;;;;;;21.33;17.60;;;;;;;;;;5034766;28;20446;-58
2022/08/04 07:25:51;;;;;;;21.40;17.50;;;;;;;;;;5032024;28;20060;-54
2022/08/04 07:28:17;;;;;;;23.50;18.27;;;;;;;;;;5032515;28;20065;-54
2022/08/04 07:30:44;;;;;;;19.38;17.33;;;;;;;;;;5033336;28;20025;-58
2022/08/04 07:33:10;;;;;;;19.85;17.17;;;;;;;;;;5034226;28;20481;-56
2022/08/04 07:35:37;;;;;;;20.13;17.30;;;;;;;;;;5032584;28;20033;-55
2022/08/04 07:38:03;;;;;;;22.73;17.50;;;;;;;;;;5033232;28;20022;-58
2022/08/04 07:40:30;;;;;;;19.40;17.40;;;;;;;;;;5033443;28;20083;-58
2022/08/04 07:42:56;;;;;;;22.30;17.70;;;;;;;;;;5032922;28;20049;-57
2022/08/04 07:45:23;;;;;;;20.30;17.10;;;;;;;;;;5034290;28;20030;-52
2022/08/04 07:47:49;;;;;;;21.50;16.98;;;;;;;;;;5033654;28;20393;-58
2022/08/04 07:50:16;;;;;;;22.83;17.75;;;;;;;;;;5031474;28;20061;-51
2022/08/04 07:52:42;;;;;;;20.20;18.00;;;;;;;;;;5014413;28;20549;-57
2022/08/04 07:55:08;;;;;;;21.83;17.42;;;;;;;;;;5014402;28;20026;-59
2022/08/04 07:57:34;;;;;;;21.73;17.60;;;;;;;;;;5013874;28;20397;-59
2022/08/04 08:00:00;;;;;;;21.27;16.65;;;;;;;;;;5014403;28;20101;-55
2022/08/04 08:02:26;;;;;;;22.55;17.05;;;;;;;;;;5015375;28;20076;-57
2022/08/04 08:04:53;;;;;;;21.25;18.02;;;;;;;;;;5013054;28;20486;-57
2022/08/04 08:07:19;;;;;;;19.80;17.70;;;;;;;;;;5012564;28;20164;-57
2022/08/04 08:09:45;;;;;;;21.45;17.17;;;;;;;;;;5014211;28;20079;-57
2022/08/04 08:12:12;;;;;;;21.92;17.00;;;;;;;;;;5014515;28;20035;-66
2022/08/04 08:14:39;;;;;;;19.88;17.05;;;;;;;;;;5015078;28;20109;-66
2022/08/04 08:17:05;;;;;;;19.45;17.33;;;;;;;;;;5015608;28;20494;-67
2022/08/04 08:19:32;;;;;;;21.88;17.60;;;;;;;;;;5014616;28;20066;-66
2022/08/04 08:21:58;;;;;;;19.45;17.45;;;;;;;;;;5012958;28;20018;-67
2022/08/04 08:24:24;;;;;;;20.17;17.02;;;;;;;;;;5014740;28;20030;-65
2022/08/04 08:26:50;;;;;;;19.52;17.48;;;;;;;;;;5020289;28;20514;-65
2022/08/04 08:29:17;;;;;;;19.95;17.50;;;;;;;;;;5029877;28;20030;-63
2022/08/04 08:31:43;;;;;;;19.27;17.13;;;;;;;;;;5038157;28;20493;-61
2022/08/04 08:34:11;;;;;;;22.33;16.92;;;;;;;;;;5028969;28;20405;-60
2022/08/04 08:37:03;;;;;;;19.63;17.40;;;;;;;;;;5033250;28;20029;-62
2022/08/04 08:39:38;;;;;;;19.27;17.20;;;;;;;;;;5030670;28;20052;-62
2022/08/04 08:42:23;;;;;;;19.80;17.65;;;;;;;;;;5033166;28;20028;-62
2022/08/04 08:45:08;;;;;;;19.15;16.70;;;;;;;;;;5032208;28;20120;-62
2022/08/04 08:47:40;;;;;;;20.20;16.98;;;;;;;;;;5032132;28;20399;-62
2022/08/04 08:50:24;;;;;;;19.40;17.40;;;;;;;;;;5032745;28;20021;-62
2022/08/04 08:52:50;;;;;;;19.48;17.20;;;;;;;;;;5032553;28;20156;-59
2022/08/04 08:55:30;;;;;;;21.38;17.40;;;;;;;;;;5032590;28;20060;-62
2022/08/04 08:58:15;;;;;;;19.58;17.38;;;;;;;;;;5030751;28;20397;-62
2022/08/04 09:00:59;;;;;;;19.10;17.02;;;;;;;;;;5032758;28;20040;-63
2022/08/04 09:03:44;;;;;;;19.60;17.50;;;;;;;;;;5032972;28;20091;-61
2022/08/04 09:06:30;;;;;;;19.42;17.38;;;;;;;;;;5032796;28;20034;-60
2022/08/04 09:08:59;;;;;;;19.27;17.05;;;;;;;;;;5030777;28;20025;-62
2022/08/04 09:11:34;;;;;;;22.83;17.45;;;;;;;;;;5032582;28;20405;-62
2022/08/04 09:14:04;;;;;;;21.77;18.13;;;;;;;;;;5031606;28;20112;-61
2022/08/04 09:16:40;;;;;;;20.40;17.63;;;;;;;;;;5032756;28;20108;-62
2022/08/04 09:19:16;;;;;;;21.50;17.48;;;;;;;;;;5030752;28;20120;-63
2022/08/04 09:21:58;;;;;;;19.10;17.05;;;;;;;;;;5032282;28;20025;-62
2022/08/04 09:24:43;;;;;;;19.30;17.20;;;;;;;;;;5032815;28;20042;-62
2022/08/04 09:27:14;;;;;;;19.83;17.58;;;;;;;;;;5031462;28;20072;-63
2022/08/04 09:30:01;;;;;;;20.77;17.98;;;;;;;;;;5032355;28;20075;-64
2022/08/04 09:32:34;;;;;;;20.25;17.60;;;;;;;;;;5032710;28;20034;-65
2022/08/04 09:35:09;;;;;;;19.52;17.42;;;;;;;;;;5033148;28;20056;-59
2022/08/04 09:37:42;;;;;;;20.10;18.00;;;;;;;;;;5031701;28;20520;-59
2022/08/04 09:40:08;;;;;;;20.95;17.90;;;;;;;;;;5032408;28;20029;-58
2022/08/04 09:42:34;;;;;;;21.30;18.35;;;;;;;;;;5034183;28;20018;-55
2022/08/04 09:45:04;;;;;;;19.50;17.40;;;;;;;;;;5031915;28;20447;-58
2022/08/04 09:47:30;;;;;;;20.02;17.20;;;;;;;;;;5031357;28;20045;-58
2022/08/04 09:50:23;;;;;;;20.60;17.05;;;;;;;;;;5032152;28;20374;-58
2022/08/04 09:52:51;;;;;;;22.20;17.58;;;;;;;;;;5023748;28;20034;-58
2022/08/04 09:55:30;;;;;;;19.30;17.20;;;;;;;;;;5031668;28;20036;-58
2022/08/04 09:58:10;;;;;;;19.63;17.55;;;;;;;;;;5030098;28;20128;-58
2022/08/04 10:00:40;;;;;;;19.73;17.25;;;;;;;;;;5031604;28;20044;-57
2022/08/04 10:03:09;;;;;;;19.90;17.80;;;;;;;;;;5032120;28;20053;-58
2022/08/04 10:05:45;;;;;;;19.35;16.95;;;;;;;;;;5031976;28;20478;-59
2022/08/04 10:08:23;;;;;;;20.85;16.95;;;;;;;;;;5030796;28;20049;-57
2022/08/04 10:10:52;;;;;;;21.83;17.73;;;;;;;;;;5030288;28;20117;-58
2022/08/04 10:13:23;;;;;;;20.42;17.27;;;;;;;;;;5031967;28;20044;-57
2022/08/04 10:15:54;;;;;;;21.00;17.05;;;;;;;;;;5031956;28;20055;-67
2022/08/04 10:18:35;;;;;;;19.65;16.95;;;;;;;;;;5029774;28;20108;-58
2022/08/04 10:21:11;;;;;;;19.00;16.90;;;;;;;;;;5031624;28;20021;-59
2022/08/04 10:23:40;;;;;;;19.23;17.08;;;;;;;;;;5031571;28;20025;-58
2022/08/04 10:26:28;;;;;;;18.88;16.98;;;;;;;;;;5031433;28;20033;-58
2022/08/04 10:29:02;;;;;;;20.08;17.40;;;;;;;;;;5030626;28;20509;-61
2022/08/04 10:31:36;;;;;;;19.63;17.52;;;;;;;;;;5029917;28;20057;-64
2022/08/04 10:34:13;;;;;;;18.80;16.83;;;;;;;;;;5031191;28;20033;-63
2022/08/04 10:37:00;;;;;;;19.55;17.30;;;;;;;;;;5031590;28;20026;-64
2022/08/04 10:39:36;;;;;;;19.25;17.10;;;;;;;;;;5033737;28;20033;-64
2022/08/04 10:42:12;;;;;;;19.98;17.02;;;;;;;;;;5035613;28;20025;-61
2022/08/04 10:44:50;;;;;;;19.23;17.02;;;;;;;;;;5035945;28;20026;-60
2022/08/04 10:47:19;;;;;;;18.98;16.95;;;;;;;;;;5035007;28;20096;-66
2022/08/04 10:49:58;;;;;;;18.77;16.77;;;;;;;;;;5044878;28;20028;-68
2022/08/04 10:52:30;;;;;;;20.13;18.00;;;;;;;;;;5037845;28;20030;-65
2022/08/04 10:55:16;;;;;;;19.95;17.27;;;;;;;;;;5037131;28;20057;-65
2022/08/04 10:57:48;;;;;;;20.45;16.95;;;;;;;;;;5034005;28;20030;-63
2022/08/04 11:00:18;;;;;;;19.58;17.58;;;;;;;;;;5035543;28;20397;-64
2022/08/04 11:03:04;;;;;;;19.30;17.23;;;;;;;;;;5035383;28;20026;-64
2022/08/04 11:05:39;;;;;;;20.20;18.10;;;;;;;;;;5035475;28;20132;-64
2022/08/04 11:08:14;;;;;;;22.52;18.25;;;;;;;;;;5033002;28;20029;-65
2022/08/04 11:11:00;;;;;;;20.45;17.00;;;;;;;;;;5034573;28;20032;-62
2022/08/04 11:13:32;;;;;;;19.05;16.83;;;;;;;;;;5034684;28;20033;-64
2022/08/04 11:16:02;;;;;;;18.77;16.77;;;;;;;;;;5035170;28;20033;-65
2022/08/04 11:18:34;;;;;;;19.60;17.15;;;;;;;;;;5034434;28;20017;-64
2022/08/04 11:21:10;;;;;;;19.30;17.20;;;;;;;;;;5033544;28;20043;-65
2022/08/04 11:23:38;;;;;;;19.35;17.30;;;;;;;;;;5034207;28;20500;-64
2022/08/04 11:26:07;;;;;;;28.83;17.38;;;;;;;;;;5034977;28;20026;-65
2022/08/04 11:28:48;;;;;;;20.30;17.15;;;;;;;;;;5034673;28;20029;-64
2022/08/04 11:31:19;;;;;;;19.17;17.17;;;;;;;;;;5034906;28;20045;-65
2022/08/04 11:34:14;;;;;;;20.27;17.73;;;;;;;;;;5035201;28;20029;-64
2022/08/04 11:37:01;;;;;;;21.45;17.45;;;;;;;;;;5015112;28;20029;-64
2022/08/04 11:39:29;;;;;;;20.23;17.70;;;;;;;;;;5015057;28;20448;-65
2022/08/04 11:42:07;;;;;;;19.90;17.40;;;;;;;;;;5014422;28;20510;-63
2022/08/04 11:44:40;;;;;;;19.45;17.25;;;;;;;;;;5014510;28;20056;-67
2022/08/04 11:47:25;;;;;;;22.63;18.25;;;;;;;;;;5014686;28;20050;-65
2022/08/04 11:49:58;;;;;;;19.08;17.08;;;;;;;;;;5013960;28;20025;-65
2022/08/04 11:52:26;;;;;;;20.58;17.45;;;;;;;;;;5013141;28;20032;-66
2022/08/04 11:54:53;;;;;;;18.98;16.98;;;;;;;;;;5014622;28;20565;-65
2022/08/04 11:57:19;;;;;;;19.70;17.60;;;;;;;;;;5013889;28;20084;-64
2022/08/04 11:59:47;;;;;;;19.50;17.25;;;;;;;;;;5014432;28;20457;-65
2022/08/04 12:02:14;;;;;;;20.00;17.98;;;;;;;;;;5014368;28;20397;-64
2022/08/04 12:04:43;;;;;;;20.10;17.65;;;;;;;;;;5014667;28;20097;-65
2022/08/04 12:07:19;;;;;;;20.23;17.67;;;;;;;;;;5014023;28;20022;-63
2022/08/04 12:09:57;;;;;;;19.30;17.27;;;;;;;;;;5014081;28;20029;-65
2022/08/04 12:12:43;;;;;;;19.98;17.77;;;;;;;;;;5014440;28;20049;-64
2022/08/04 12:15:18;;;;;;;19.90;17.80;;;;;;;;;;5014570;28;20037;-65
2022/08/04 12:17:51;;;;;;;21.08;18.00;;;;;;;;;;5012576;28;20075;-64
2022/08/04 12:20:20;;;;;;;20.10;17.83;;;;;;;;;;5014014;28;20398;-65
2022/08/04 12:22:49;;;;;;;20.45;18.35;;;;;;;;;;5013661;28;20021;-63
2022/08/04 12:25:29;;;;;;;21.80;18.08;;;;;;;;;;5013868;28;20025;-65
2022/08/04 12:28:07;;;;;;;20.10;18.10;;;;;;;;;;5012913;28;20026;-65
2022/08/04 12:30:41;;;;;;;20.50;18.40;;;;;;;;;;5013611;28;20486;-64
2022/08/04 12:33:19;;;;;;;20.00;17.80;;;;;;;;;;5013980;28;20050;-65
2022/08/04 12:35:52;;;;;;;20.10;17.92;;;;;;;;;;5026360;28;20633;-65
2022/08/04 12:38:20;;;;;;;20.30;18.20;;;;;;;;;;5031612;28;20025;-65
2022/08/04 12:40:49;;;;;;;20.02;17.92;;;;;;;;;;5033532;28;20026;-64
2022/08/04 12:43:34;;;;;;;19.65;17.40;;;;;;;;;;5033408;28;20021;-66
2022/08/04 12:46:07;;;;;;;19.65;17.50;;;;;;;;;;5033421;28;20034;-65
2022/08/04 12:48:34;;;;;;;19.50;17.35;;;;;;;;;;5032350;28;20033;-65
2022/08/04 12:51:02;;;;;;;21.30;17.60;;;;;;;;;;5033042;28;20109;-64
2022/08/04 12:53:31;;;;;;;19.77;16.77;;;;;;;;;;5032947;28;20434;-66
2022/08/04 12:55:58;;;;;;;19.95;16.98;;;;;;;;;;5032869;28;20025;-65
2022/08/04 12:58:26;;;;;;;22.77;18.13;;;;;;;;;;5031184;28;20017;-66
2022/08/04 13:01:12;;;;;;;19.70;17.08;;;;;;;;;;5031871;28;20772;-65
2022/08/04 13:04:02;;;;;;;24.70;17.40;;;;;;;;;;5029083;28;20072;-65
2022/08/04 13:06:31;;;;;;;21.17;17.58;;;;;;;;;;5033134;28;20029;-65
2022/08/04 13:09:02;;;;;;;19.38;17.02;;;;;;;;;;5032112;28;20025;-65
2022/08/04 13:11:30;;;;;;;21.13;17.23;;;;;;;;;;5032306;28;20489;-65
2022/08/04 13:13:57;;;;;;;21.77;17.67;;;;;;;;;;5031468;28;20029;-66
2022/08/04 13:16:30;;;;;;;26.27;17.75;;;;;;;;;;5032637;28;20551;-64
2022/08/04 13:18:57;;;;;;;21.40;17.95;;;;;;;;;;5030713;28;20029;-64
2022/08/04 13:21:24;;;;;;;21.35;17.48;;;;;;;;;;5032782;28;20052;-65
2022/08/04 13:23:52;;;;;;;22.57;17.80;;;;;;;;;;5032936;28;20033;-64
2022/08/04 13:26:18;;;;;;;22.27;17.58;;;;;;;;;;5032398;28;20037;-65
2022/08/04 13:28:46;;;;;;;21.48;18.05;;;;;;;;;;5031764;28;20049;-65
2022/08/04 13:31:14;;;;;;;23.05;17.63;;;;;;;;;;5031127;28;20041;-65
2022/08/04 13:33:42;;;;;;;22.48;17.95;;;;;;;;;;5032580;28;20029;-65
2022/08/04 13:36:08;;;;;;;19.27;17.17;;;;;;;;;;5032336;28;20029;-65
2022/08/04 13:38:36;;;;;;;25.42;17.80;;;;;;;;;;5031724;28;20180;-65
2022/08/04 13:41:04;;;;;;;25.60;18.43;;;;;;;;;;5032550;28;20053;-67
2022/08/04 13:43:30;;;;;;;;;;;;;;;;;;5032738;28;20268;-66
2022/08/04 13:46:01;;;;;;;24.48;18.63;;;;;;;;;;5032614;28;19940;-64
2022/08/04 13:48:35;;;;;;;20.30;17.67;;;;;;;;;;5031601;28;20026;-64
2022/08/04 13:51:03;;;;;;;21.60;17.52;;;;;;;;;;5032078;28;20029;-65
2022/08/04 13:53:31;;;;;;;21.50;17.63;;;;;;;;;;5031822;28;20045;-65
2022/08/04 13:55:59;;;;;;;21.37;17.10;;;;;;;;;;5031963;28;20033;-64
2022/08/04 13:58:26;;;;;;;19.80;17.70;;;;;;;;;;5031487;28;20707;-63
2022/08/04 14:01:00;;;;;;;21.73;17.15;;;;;;;;;;5031940;28;20433;-64
2022/08/04 14:03:26;;;;;;;21.92;18.08;;;;;;;;;;5046169;22;20117;-64
2022/08/04 14:06:10;;;;;;;23.10;18.00;;;;;;;;;;5032453;28;20031;-64
2022/08/04 14:08:43;;;;;;;24.38;18.50;;;;;;;;;;5031561;28;20029;-64
2022/08/04 14:11:10;;;;;;;20.90;18.00;;;;;;;;;;5032059;28;20026;-65
2022/08/04 14:13:37;;;;;;;21.33;17.87;;;;;;;;;;5031891;28;20510;-64
2022/08/04 14:16:12;;;;;;;21.63;17.45;;;;;;;;;;5032033;28;20029;-65
2022/08/04 14:18:38;;;;;;;21.95;18.50;;;;;;;;;;5031669;28;20022;-64
2022/08/04 14:21:06;;;;;;;19.73;17.30;;;;;;;;;;5031980;28;20022;-65
2022/08/04 14:23:40;;;;;;;25.13;18.30;;;;;;;;;;5032002;28;20030;-65
2022/08/04 14:26:21;;;;;;;22.75;18.08;;;;;;;;;;5032573;28;20402;-65
2022/08/04 14:28:48;;;;;;;22.23;18.20;;;;;;;;;;5031241;28;20091;-65
2022/08/04 14:31:15;;;;;;;19.80;17.70;;;;;;;;;;5031801;28;20033;-65
2022/08/04 14:33:43;;;;;;;20.50;17.10;;;;;;;;;;5031956;28;20492;-66
2022/08/04 14:36:09;;;;;;;20.33;17.30;;;;;;;;;;5031877;28;20026;-65
2022/08/04 14:38:41;;;;;;;22.20;17.58;;;;;;;;;;5031363;28;20029;-66
2022/08/04 14:41:07;;;;;;;20.25;18.00;;;;;;;;;;5031233;28;20021;-65
2022/08/04 14:43:41;;;;;;;20.25;17.48;;;;;;;;;;5032432;28;20056;-64
2022/08/04 14:46:07;;;;;;;21.42;18.17;;;;;;;;;;5032355;28;20474;-65
2022/08/04 14:48:33;;;;;;;21.90;17.75;;;;;;;;;;5031688;28;20030;-65